Time;durP1;ratioP1;P1;durP2;ratioP2;P2;SDS_P1;SDS_P2;PMS_P1;PMS_P2;Temp;Humidity;BMP_temperature;BMP_pressure;BME280_temperature;BME280_humidity;BME280_pressure;Samples;Min_cycle;Max_cycle;Signal;HPM_P1;HPM_P2
2021/05/01 00:02:10;;;;;;;356.77;59.92;;;8.10;99.90;;;;;;6119519;23;20470;-81
2021/05/01 00:04:36;;;;;;;288.48;54.35;;;8.10;99.90;;;;;;6119488;23;20060;-81
2021/05/01 00:07:02;;;;;;;500.33;74.13;;;8.10;99.90;;;;;;6144354;23;20016;-81
2021/05/01 00:09:28;;;;;;;250.85;51.28;;;8.10;99.90;;;;;;6121516;23;20018;-81
2021/05/01 00:11:54;;;;;;;95.22;37.88;;;8.10;99.90;;;;;;6168521;23;20010;-81
2021/05/01 00:14:21;;;;;;;286.05;57.13;;;8.10;99.90;;;;;;6143297;23;20033;-81
2021/05/01 00:16:47;;;;;;;87.82;36.38;;;8.10;99.90;;;;;;6122299;23;20069;-81
2021/05/01 00:19:13;;;;;;;451.80;73.45;;;8.10;99.90;;;;;;6122128;23;20024;-81
2021/05/01 00:21:39;;;;;;;283.63;53.90;;;8.10;99.90;;;;;;6119932;23;21009;-80
2021/05/01 00:24:05;;;;;;;231.95;52.60;;;8.10;99.90;;;;;;6117656;23;20444;-81
2021/05/01 00:26:31;;;;;;;245.57;57.53;;;8.10;99.90;;;;;;6168740;23;20463;-80
2021/05/01 00:28:57;;;;;;;268.92;54.75;;;8.10;99.90;;;;;;6119870;23;20440;-81
2021/05/01 00:31:23;;;;;;;306.35;61.47;;;8.10;99.90;;;;;;6142959;23;20399;-81
2021/05/01 00:33:49;;;;;;;100.07;38.03;;;8.20;99.90;;;;;;6140437;23;20018;-81
2021/05/01 00:36:14;;;;;;;255.55;54.00;;;8.10;99.90;;;;;;6118850;23;20009;-81
2021/05/01 00:38:40;;;;;;;153.27;46.55;;;8.10;99.90;;;;;;6121219;23;20014;-81
2021/05/01 00:41:06;;;;;;;76.05;35.70;;;8.10;99.90;;;;;;6168029;23;20029;-81
2021/05/01 00:43:32;;;;;;;257.48;73.03;;;8.00;99.90;;;;;;6118240;23;20013;-81
2021/05/01 00:46:04;;;;;;;516.38;80.13;;;8.00;99.90;;;;;;6168216;23;20088;-81
2021/05/01 00:48:31;;;;;;;78.30;68.82;;;8.00;99.90;;;;;;6120314;23;20014;-81
2021/05/01 00:50:58;;;;;;;148.02;46.38;;;8.00;99.90;;;;;;6169024;23;20018;-80
2021/05/01 00:53:24;;;;;;;341.58;62.97;;;8.00;99.90;;;;;;6142653;23;20024;-81
2021/05/01 00:55:50;;;;;;;254.38;54.00;;;8.00;99.90;;;;;;6118933;23;20014;-81
2021/05/01 00:58:16;;;;;;;176.90;47.03;;;8.00;99.90;;;;;;6119942;23;20018;-78
2021/05/01 01:03:20;;;;;;;298.92;59.03;;;8.00;99.90;;;;;;6145809;23;20037;-78
2021/05/01 01:05:46;;;;;;;168.77;48.13;;;8.00;99.90;;;;;;6148775;23;20029;-79
2021/05/01 01:08:12;;;;;;;388.85;69.97;;;8.10;99.90;;;;;;6173952;23;20017;-78
2021/05/01 01:10:39;;;;;;;159.65;46.72;;;8.10;99.90;;;;;;6149620;23;20020;-79
2021/05/01 01:13:05;;;;;;;181.88;49.03;;;8.00;99.90;;;;;;6147852;23;20032;-78
2021/05/01 01:15:32;;;;;;;223.48;54.45;;;8.00;99.90;;;;;;6150144;23;20037;-78
2021/05/01 01:17:59;;;;;;;147.00;47.65;;;8.00;99.90;;;;;;6151446;23;20088;-78
2021/05/01 01:20:26;;;;;;;329.92;63.15;;;8.00;99.90;;;;;;6124382;23;20020;-78
2021/05/01 01:22:52;;;;;;;95.50;40.97;;;8.10;99.90;;;;;;6123541;23;20057;-78
2021/05/01 01:25:19;;;;;;;224.15;54.45;;;8.10;99.90;;;;;;6147963;23;20013;-78
2021/05/01 01:27:46;;;;;;;125.68;45.72;;;8.10;99.90;;;;;;6125409;23;20451;-79
2021/05/01 01:30:15;;;;;;;278.88;59.78;;;8.10;99.90;;;;;;6123763;23;20020;-79
2021/05/01 01:32:41;;;;;;;291.50;60.88;;;8.00;99.90;;;;;;6149223;23;20028;-78
2021/05/01 01:35:10;;;;;;;107.85;44.10;;;8.00;99.90;;;;;;6147759;23;20017;-78
2021/05/01 01:37:39;;;;;;;167.05;47.08;;;8.00;99.90;;;;;;6125104;23;20014;-78
2021/05/01 01:40:05;;;;;;;265.23;58.38;;;7.90;99.90;;;;;;6173927;23;20013;-79
2021/05/01 01:42:31;;;;;;;394.00;67.53;;;7.90;99.90;;;;;;6173611;23;20013;-78
2021/05/01 01:44:57;;;;;;;285.02;56.22;;;8.00;99.90;;;;;;6147508;23;20100;-78
2021/05/01 01:47:23;;;;;;;339.75;60.13;;;8.00;99.90;;;;;;6124625;23;20014;-79
2021/05/01 01:49:49;;;;;;;377.85;64.93;;;8.00;99.90;;;;;;6149244;23;20037;-78
2021/05/01 01:52:15;;;;;;;269.80;59.40;;;8.00;99.90;;;;;;6123386;23;20013;-78
2021/05/01 01:54:41;;;;;;;106.38;41.00;;;8.00;99.90;;;;;;6123462;23;20064;-78
2021/05/01 01:57:07;;;;;;;327.52;60.55;;;7.90;99.90;;;;;;6149063;23;20601;-77
2021/05/01 01:59:33;;;;;;;127.55;44.05;;;7.90;99.90;;;;;;6099642;23;20010;-78
2021/05/01 02:01:59;;;;;;;369.63;63.78;;;7.90;99.90;;;;;;6147574;23;20021;-79
2021/05/01 02:04:24;;;;;;;361.65;66.57;;;8.00;99.90;;;;;;6170696;23;20473;-78
2021/05/01 02:06:50;;;;;;;361.45;60.40;;;8.00;99.90;;;;;;6147614;23;20060;-79
2021/05/01 02:09:16;;;;;;;309.60;55.60;;;8.00;99.90;;;;;;6124119;23;20013;-78
2021/05/01 02:11:42;;;;;;;503.17;76.75;;;8.00;99.90;;;;;;6172734;23;20014;-81
2021/05/01 02:14:08;;;;;;;98.80;39.78;;;8.00;99.90;;;;;;6146261;23;20439;-81
2021/05/01 02:16:35;;;;;;;358.80;62.40;;;8.00;99.90;;;;;;6147331;23;20112;-81
2021/05/01 02:19:02;;;;;;;251.15;53.78;;;8.00;99.90;;;;;;6147938;23;20028;-81
2021/05/01 02:21:28;;;;;;;288.13;55.25;;;8.00;99.90;;;;;;6148417;23;20020;-80
2021/05/01 02:23:54;;;;;;;151.77;43.35;;;8.00;99.90;;;;;;6145888;23;20018;-81
2021/05/01 02:26:20;;;;;;;285.13;57.67;;;8.00;99.90;;;;;;6122423;23;20017;-81
2021/05/01 02:28:46;;;;;;;272.95;54.90;;;8.00;99.90;;;;;;6147476;23;20017;-81
2021/05/01 02:31:12;;;;;;;320.25;56.40;;;8.00;99.90;;;;;;6146828;23;20013;-81
2021/05/01 02:33:38;;;;;;;254.38;54.92;;;8.00;99.90;;;;;;6147703;23;20530;-81
2021/05/01 02:36:04;;;;;;;277.23;51.88;;;8.10;99.90;;;;;;6122598;23;20821;-82
2021/05/01 02:38:31;;;;;;;437.38;65.95;;;8.00;99.90;;;;;;6122601;23;20093;-80
2021/05/01 02:40:57;;;;;;;65.97;33.17;;;8.00;99.90;;;;;;6123406;23;20080;-81
2021/05/01 02:43:23;;;;;;;238.63;51.88;;;8.00;99.90;;;;;;6121811;23;20006;-81
2021/05/01 02:45:49;;;;;;;472.52;72.22;;;7.90;99.90;;;;;;6170449;23;20028;-81
2021/05/01 02:48:15;;;;;;;312.67;56.47;;;7.90;99.90;;;;;;6123404;23;20017;-80
2021/05/01 02:50:41;;;;;;;96.07;38.53;;;7.90;99.90;;;;;;6147698;23;20100;-81
2021/05/01 02:53:07;;;;;;;540.20;75.13;;;7.80;99.90;;;;;;6122736;23;20021;-81
2021/05/01 02:55:34;;;;;;;407.90;62.85;;;7.80;99.90;;;;;;6121785;23;20057;-81
2021/05/01 02:58:00;;;;;;;477.05;67.35;;;7.70;99.90;;;;;;6172141;23;20009;-81
2021/05/01 03:00:27;;;;;;;700.70;92.65;;;7.70;99.90;;;;;;6172089;23;20119;-81
2021/05/01 03:02:54;;;;;;;239.23;44.30;;;7.60;99.90;;;;;;6097002;23;20081;-81
2021/05/01 03:05:20;;;;;;;272.85;46.63;;;7.50;99.90;;;;;;6146865;23;20350;-80
2021/05/01 03:07:46;;;;;;;432.38;60.10;;;7.50;99.90;;;;;;6147997;23;20467;-81
2021/05/01 03:10:17;;;;;;;1017.28;120.38;;;7.40;99.90;;;;;;6124040;23;20017;-80
2021/05/01 03:12:42;;;;;;;473.00;64.75;;;7.40;99.90;;;;;;6149510;23;20068;-80
2021/05/01 03:15:10;;;;;;;111.68;38.25;;;7.40;99.90;;;;;;6148363;23;20040;-81
2021/05/01 03:17:37;;;;;;;1006.10;119.72;;;7.40;99.90;;;;;;6124007;23;20017;-81
2021/05/01 03:20:05;;;;;;;540.83;84.78;;;7.40;99.90;;;;;;6124196;23;20392;-81
2021/05/01 03:22:30;;;;;;;391.13;62.30;;;7.50;99.90;;;;;;6148374;23;20018;-81
2021/05/01 03:24:56;;;;;;;492.90;50.58;;;7.50;99.90;;;;;;6124891;23;20087;-80
2021/05/01 03:27:22;;;;;;;556.65;55.58;;;7.50;99.90;;;;;;6149672;23;20018;-80
2021/05/01 03:29:48;;;;;;;350.88;39.28;;;7.60;99.90;;;;;;6175025;23;20105;-81
2021/05/01 03:32:14;;;;;;;325.90;38.83;;;7.60;99.90;;;;;;6150593;23;20045;-81
2021/05/01 03:34:40;;;;;;;624.75;66.30;;;7.70;99.90;;;;;;6150114;23;20020;-81
2021/05/01 03:37:06;;;;;;;466.42;53.50;;;7.70;99.90;;;;;;6149142;23;20014;-81
2021/05/01 03:39:32;;;;;;;219.65;32.90;;;7.70;99.90;;;;;;6125422;23;20024;-81
2021/05/01 03:42:00;;;;;;;333.40;45.33;;;7.70;99.90;;;;;;6125783;23;20017;-80
2021/05/01 03:44:27;;;;;;;124.85;27.90;;;7.70;99.90;;;;;;6123918;23;20024;-81
2021/05/01 03:46:53;;;;;;;118.43;32.92;;;7.70;99.90;;;;;;6125629;23;20036;-80
2021/05/01 03:49:19;;;;;;;720.50;87.95;;;7.70;99.90;;;;;;6151797;23;20014;-81
2021/05/01 03:51:45;;;;;;;163.13;37.95;;;7.70;99.90;;;;;;6149829;23;20017;-81
2021/05/01 03:54:10;;;;;;;99.28;32.58;;;7.70;99.90;;;;;;6150866;23;20022;-80
2021/05/01 03:56:36;;;;;;;192.10;39.33;;;7.70;99.90;;;;;;6151255;23;20013;-81
2021/05/01 03:59:02;;;;;;;223.80;43.42;;;7.70;99.90;;;;;;6124315;23;20014;-81
2021/05/01 04:01:28;;;;;;;483.25;65.57;;;7.70;99.90;;;;;;6149685;23;20017;-81
2021/05/01 04:03:54;;;;;;;265.45;50.05;;;7.60;99.90;;;;;;6147880;23;20021;-81
2021/05/01 04:06:20;;;;;;;185.93;42.90;;;7.60;99.90;;;;;;6174479;23;20017;-81
2021/05/01 04:08:46;;;;;;;291.70;55.78;;;7.60;99.90;;;;;;6149304;23;20014;-81
2021/05/01 04:11:12;;;;;;;143.35;42.65;;;7.70;99.90;;;;;;6150614;23;20014;-81
2021/05/01 04:13:47;;;;;;;117.22;41.13;;;7.70;99.90;;;;;;6148435;23;20021;-81
2021/05/01 04:16:17;;;;;;;543.03;81.20;;;7.60;99.90;;;;;;6124926;23;20088;-80
2021/05/01 04:18:45;;;;;;;319.88;60.40;;;7.60;99.90;;;;;;6124499;23;20052;-81
2021/05/01 04:21:11;;;;;;;171.30;47.38;;;7.70;99.90;;;;;;6125339;23;20049;-81
2021/05/01 04:23:37;;;;;;;513.17;78.10;;;7.70;99.90;;;;;;6172345;23;20014;-80
2021/05/01 04:26:04;;;;;;;386.20;63.28;;;7.60;99.90;;;;;;6175388;23;20013;-81
2021/05/01 04:28:31;;;;;;;75.07;34.40;;;7.60;99.90;;;;;;6150095;23;20013;-80
2021/05/01 04:30:57;;;;;;;90.07;35.90;;;7.60;99.90;;;;;;6100279;23;20025;-81
2021/05/01 04:33:23;;;;;;;206.00;50.67;;;7.60;99.90;;;;;;6123639;23;20193;-81
2021/05/01 04:35:50;;;;;;;81.78;36.38;;;7.50;99.90;;;;;;6124395;23;20024;-81
2021/05/01 04:38:16;;;;;;;99.15;39.13;;;7.50;99.90;;;;;;6150969;23;20017;-81
2021/05/01 04:40:43;;;;;;;119.10;42.63;;;7.50;99.90;;;;;;6173011;23;20013;-81
2021/05/01 04:43:11;;;;;;;255.20;55.80;;;7.50;99.90;;;;;;6141532;23;20138;-81
2021/05/01 04:45:37;;;;;;;144.13;44.80;;;7.50;99.90;;;;;;6123846;23;20013;-81
2021/05/01 04:48:05;;;;;;;82.15;39.70;;;7.50;99.90;;;;;;6125006;23;20025;-81
2021/05/01 04:50:31;;;;;;;325.10;65.05;;;7.60;99.90;;;;;;6148574;23;20014;-81
2021/05/01 04:52:57;;;;;;;207.23;52.05;;;7.70;99.90;;;;;;6148196;23;20447;-81
2021/05/01 04:55:25;;;;;;;390.38;68.07;;;7.70;99.90;;;;;;6123623;23;20044;-81
2021/05/01 04:57:52;;;;;;;158.07;49.83;;;7.80;99.90;;;;;;6172028;23;20083;-81
2021/05/01 05:00:19;;;;;;;200.27;53.72;;;7.80;99.90;;;;;;6123600;23;20014;-82
2021/05/01 05:02:46;;;;;;;169.70;50.50;;;7.80;99.90;;;;;;6148152;23;20021;-81
2021/05/01 05:05:13;;;;;;;117.47;45.58;;;7.80;99.90;;;;;;6123399;23;20049;-81
2021/05/01 05:07:39;;;;;;;116.13;45.35;;;7.80;99.90;;;;;;6173708;23;20375;-81
2021/05/01 05:10:08;;;;;;;303.23;60.50;;;7.80;99.90;;;;;;6123782;23;20010;-81
2021/05/01 05:12:34;;;;;;;489.05;78.10;;;7.80;99.90;;;;;;6149308;23;20014;-81
2021/05/01 05:15:00;;;;;;;168.45;49.50;;;7.80;99.90;;;;;;6172630;23;20039;-81
2021/05/01 05:17:26;;;;;;;363.42;69.63;;;7.80;99.90;;;;;;6148797;23;20067;-81
2021/05/01 05:19:53;;;;;;;221.95;56.28;;;7.80;99.90;;;;;;6174157;23;20036;-81
2021/05/01 05:22:18;;;;;;;137.32;47.13;;;7.90;99.90;;;;;;6150008;23;20009;-81
2021/05/01 05:24:44;;;;;;;93.55;40.58;;;7.90;99.90;;;;;;6148584;23;20014;-81
2021/05/01 05:27:10;;;;;;;435.90;71.95;;;7.90;99.90;;;;;;6149276;23;20351;-81
2021/05/01 05:29:36;;;;;;;182.40;51.97;;;7.90;99.90;;;;;;6124279;23;20024;-81
2021/05/01 05:32:04;;;;;;;191.57;53.22;;;7.90;99.90;;;;;;6150223;23;20056;-81
2021/05/01 05:34:31;;;;;;;264.75;59.55;;;8.00;99.90;;;;;;6172321;23;20112;-81
2021/05/01 05:36:57;;;;;;;175.15;50.45;;;7.90;99.90;;;;;;6150066;23;20036;-81
2021/05/01 05:39:23;;;;;;;134.93;48.90;;;7.90;99.90;;;;;;6124748;23;20024;-81
2021/05/01 05:41:49;;;;;;;144.60;47.10;;;8.00;99.90;;;;;;6148603;23;20024;-81
2021/05/01 05:44:15;;;;;;;102.53;43.20;;;8.00;99.90;;;;;;6149479;23;20720;-81
2021/05/01 05:46:41;;;;;;;291.52;58.50;;;8.00;99.90;;;;;;6150628;23;20104;-81
2021/05/01 05:49:08;;;;;;;64.40;34.83;;;8.10;99.90;;;;;;6151131;23;20386;-81
2021/05/01 05:51:35;;;;;;;101.85;41.70;;;8.00;99.90;;;;;;6150010;23;20020;-82
2021/05/01 05:54:02;;;;;;;64.18;35.22;;;8.00;99.90;;;;;;6146840;23;20017;-81
2021/05/01 05:56:28;;;;;;;68.50;33.10;;;8.00;99.90;;;;;;6148746;23;20009;-81
2021/05/01 05:58:54;;;;;;;83.28;35.20;;;7.90;99.90;;;;;;6171966;23;20451;-81
2021/05/01 06:01:25;;;;;;;80.57;36.60;;;7.90;99.90;;;;;;6172218;23;20032;-81
2021/05/01 06:03:52;;;;;;;90.53;37.05;;;7.80;99.90;;;;;;6095176;23;20032;-81
2021/05/01 06:06:25;;;;;;;58.22;31.27;;;7.70;99.90;;;;;;6149213;23;20459;-81
2021/05/01 06:08:51;;;;;;;108.75;36.60;;;7.60;99.90;;;;;;6123565;23;20024;-82
2021/05/01 06:11:18;;;;;;;58.90;30.63;;;7.60;99.90;;;;;;6124433;23;20018;-81
2021/05/01 06:13:46;;;;;;;69.13;32.33;;;7.60;99.90;;;;;;6146880;23;20017;-82
2021/05/01 06:16:13;;;;;;;48.78;28.08;;;7.60;99.90;;;;;;6148941;23;20013;-81
2021/05/01 06:18:40;;;;;;;126.00;39.67;;;7.50;99.90;;;;;;6149287;23;20087;-81
2021/05/01 06:21:11;;;;;;;70.90;30.85;;;7.50;99.90;;;;;;6148991;23;20022;-81
2021/05/01 06:23:39;;;;;;;53.22;29.73;;;7.50;99.90;;;;;;6171606;23;20052;-81
2021/05/01 06:26:05;;;;;;;76.15;33.38;;;7.50;99.90;;;;;;6148678;23;20014;-81
2021/05/01 06:28:34;;;;;;;87.32;34.28;;;7.50;99.90;;;;;;6174132;23;20010;-81
2021/05/01 06:31:05;;;;;;;48.80;29.15;;;7.60;99.90;;;;;;6148345;23;20017;-80
2021/05/01 06:33:35;;;;;;;73.25;34.28;;;7.70;99.90;;;;;;6147886;23;20013;-82
2021/05/01 06:36:03;;;;;;;104.93;36.33;;;7.80;99.90;;;;;;6174063;23;20675;-82
2021/05/01 06:38:30;;;;;;;55.03;30.65;;;8.00;99.90;;;;;;6124540;23;20013;-81
2021/05/01 06:41:00;;;;;;;128.45;41.90;;;8.00;99.90;;;;;;6149109;23;20096;-81
2021/05/01 06:43:51;;;;;;;61.40;31.10;;;8.10;99.90;;;;;;6122656;23;20032;-81
2021/05/01 06:46:19;;;;;;;99.32;38.20;;;8.20;99.90;;;;;;6123915;23;20022;-82
2021/05/01 06:48:53;;;;;;;61.08;33.70;;;8.20;99.90;;;;;;6173368;23;20454;-81
2021/05/01 06:51:19;;;;;;;77.57;34.38;;;8.20;99.90;;;;;;6124171;23;20014;-82
2021/05/01 06:53:45;;;;;;;62.08;32.70;;;8.30;99.90;;;;;;6146911;23;20093;-81
2021/05/01 06:56:13;;;;;;;70.70;33.90;;;8.40;99.90;;;;;;6149105;23;20017;-81
2021/05/01 06:58:41;;;;;;;58.65;33.38;;;8.50;99.90;;;;;;6120076;23;20052;-82
2021/05/01 07:01:12;;;;;;;72.70;35.70;;;8.50;99.90;;;;;;6151468;23;20013;-81
2021/05/01 07:03:47;;;;;;;63.72;33.78;;;8.60;99.90;;;;;;6123911;23;20399;-81
2021/05/01 07:06:17;;;;;;;49.25;31.42;;;8.60;99.90;;;;;;6148973;23;20022;-81
2021/05/01 07:08:43;;;;;;;46.90;29.67;;;8.60;99.90;;;;;;6124790;23;20551;-83
2021/05/01 07:11:11;;;;;;;33.05;25.88;;;8.60;99.90;;;;;;6175564;23;20343;-81
2021/05/01 07:13:38;;;;;;;35.60;26.30;;;8.60;99.90;;;;;;6170767;23;20036;-81
2021/05/01 07:16:07;;;;;;;33.92;24.08;;;8.60;99.90;;;;;;6147940;23;20097;-81
2021/05/01 07:18:33;;;;;;;34.13;25.23;;;8.60;99.90;;;;;;6149640;23;20014;-81
2021/05/01 07:20:59;;;;;;;29.55;21.70;;;8.60;99.90;;;;;;6124138;23;20013;-80
2021/05/01 07:23:26;;;;;;;30.48;22.77;;;8.60;99.90;;;;;;6171638;23;20045;-81
2021/05/01 07:25:53;;;;;;;26.63;20.60;;;8.50;99.90;;;;;;6148390;23;20018;-81
2021/05/01 07:28:26;;;;;;;24.83;18.58;;;8.50;99.90;;;;;;6151361;23;20068;-80
2021/05/01 07:30:59;;;;;;;26.25;19.17;;;8.50;99.90;;;;;;6123369;23;20013;-81
2021/05/01 07:33:30;;;;;;;34.67;21.60;;;8.50;99.90;;;;;;6149282;23;20024;-80
2021/05/01 07:36:02;;;;;;;20.50;15.20;;;8.60;99.90;;;;;;6122362;23;20016;-81
2021/05/01 07:38:30;;;;;;;18.02;15.60;;;8.60;99.90;;;;;;6146470;23;20414;-81
2021/05/01 07:40:59;;;;;;;30.92;20.83;;;8.60;99.90;;;;;;6147885;23;20529;-81
2021/05/01 07:43:28;;;;;;;21.52;16.55;;;8.70;99.90;;;;;;6141958;23;20013;-81
2021/05/01 07:45:56;;;;;;;21.45;17.05;;;8.70;99.90;;;;;;6122841;23;20021;-81
2021/05/01 07:48:27;;;;;;;18.08;14.65;;;8.70;99.90;;;;;;6148257;23;20017;-81
2021/05/01 07:50:55;;;;;;;16.05;13.63;;;8.80;99.90;;;;;;6152052;23;20014;-81
2021/05/01 07:53:21;;;;;;;19.63;16.38;;;8.80;99.90;;;;;;6148871;23;20013;-81
2021/05/01 07:55:47;;;;;;;20.33;15.98;;;8.80;99.90;;;;;;6174593;23;20037;-81
2021/05/01 07:58:12;;;;;;;21.35;15.68;;;8.80;99.90;;;;;;6124675;23;20017;-81
2021/05/01 08:00:39;;;;;;;16.25;13.57;;;8.70;99.90;;;;;;6174017;23;20018;-81
2021/05/01 08:03:05;;;;;;;16.88;13.90;;;8.70;99.90;;;;;;6153709;23;20458;-80
2021/05/01 08:05:31;;;;;;;18.00;15.18;;;8.60;99.90;;;;;;6170267;23;20450;-81
2021/05/01 08:07:59;;;;;;;15.60;13.95;;;8.60;99.90;;;;;;6148641;23;20076;-81
2021/05/01 08:10:26;;;;;;;19.70;15.25;;;8.60;99.90;;;;;;6148828;23;20016;-82
2021/05/01 08:12:51;;;;;;;17.52;15.45;;;8.70;99.90;;;;;;6124412;23;20358;-81
2021/05/01 08:15:18;;;;;;;19.65;15.07;;;8.70;99.90;;;;;;6173346;23;20026;-81
2021/05/01 08:17:44;;;;;;;15.70;13.15;;;8.70;99.90;;;;;;6173750;23;20009;-82
2021/05/01 08:20:12;;;;;;;18.90;15.50;;;8.70;99.90;;;;;;6173851;23;20020;-82
2021/05/01 08:22:38;;;;;;;17.60;14.82;;;8.70;99.90;;;;;;6149641;23;20028;-81
2021/05/01 08:25:06;;;;;;;17.33;13.95;;;8.80;99.90;;;;;;6123284;23;20018;-81
2021/05/01 08:27:33;;;;;;;22.80;18.02;;;9.00;99.90;;;;;;6148511;23;20014;-81
2021/05/01 08:29:59;;;;;;;17.15;15.25;;;9.10;99.90;;;;;;6173677;23;20045;-81
2021/05/01 08:32:24;;;;;;;17.90;14.80;;;9.20;99.90;;;;;;6147408;23;20044;-81
2021/05/01 08:34:50;;;;;;;17.42;15.23;;;9.20;99.90;;;;;;6148046;23;20068;-81
2021/05/01 08:37:16;;;;;;;16.95;15.05;;;9.20;99.90;;;;;;6174003;23;20044;-81
2021/05/01 08:39:42;;;;;;;16.67;13.23;;;9.40;99.90;;;;;;6123460;23;20044;-81
2021/05/01 08:42:08;;;;;;;19.45;13.82;;;9.40;99.90;;;;;;6149331;23;20018;-81
2021/05/01 08:44:35;;;;;;;17.70;13.32;;;9.30;99.90;;;;;;6147376;23;20355;-81
2021/05/01 08:47:01;;;;;;;17.38;12.90;;;9.40;99.90;;;;;;6173365;23;20009;-81
2021/05/01 08:49:27;;;;;;;14.55;12.18;;;9.50;99.90;;;;;;6123423;23;20017;-81
2021/05/01 08:51:53;;;;;;;17.23;14.13;;;9.40;99.90;;;;;;6124964;23;20019;-81
2021/05/01 08:54:19;;;;;;;16.25;12.77;;;9.30;99.90;;;;;;6147072;23;20068;-81
2021/05/01 08:56:45;;;;;;;13.23;11.63;;;9.20;99.90;;;;;;6148436;23;20013;-81
2021/05/01 08:59:11;;;;;;;15.23;13.05;;;9.10;99.90;;;;;;6150021;23;20108;-81
2021/05/01 09:01:38;;;;;;;14.32;12.00;;;8.80;99.90;;;;;;6098995;23;20463;-81
2021/05/01 09:04:10;;;;;;;16.95;13.48;;;8.80;99.90;;;;;;6147032;23;20018;-80
2021/05/01 09:06:37;;;;;;;15.18;12.55;;;8.80;99.90;;;;;;6173096;23;20071;-81
2021/05/01 09:09:09;;;;;;;15.23;11.80;;;8.90;99.90;;;;;;6149488;23;20068;-81
2021/05/01 09:11:39;;;;;;;19.35;12.82;;;8.90;99.90;;;;;;6099122;23;20016;-80
2021/05/01 09:14:17;;;;;;;13.95;12.02;;;8.80;99.90;;;;;;6149070;23;20022;-81
2021/05/01 09:16:43;;;;;;;13.43;11.60;;;8.80;99.90;;;;;;6123827;23;20088;-81
2021/05/01 09:19:10;;;;;;;15.50;11.90;;;8.70;99.90;;;;;;6144285;23;20454;-81
2021/05/01 09:21:36;;;;;;;19.13;14.13;;;8.70;99.90;;;;;;6143495;23;20132;-78
2021/05/01 09:24:04;;;;;;;14.40;11.48;;;8.70;99.90;;;;;;6147657;23;20014;-78
2021/05/01 09:26:39;;;;;;;22.25;16.70;;;8.70;99.90;;;;;;6171753;23;20013;-78
2021/05/01 09:29:05;;;;;;;16.20;14.15;;;8.80;99.90;;;;;;6124134;23;20040;-79
2021/05/01 09:31:46;;;;;;;21.23;15.88;;;8.80;99.90;;;;;;6171431;23;20826;-78
2021/05/01 09:34:12;;;;;;;16.63;12.45;;;8.90;99.90;;;;;;6172392;23;20072;-78
2021/05/01 09:36:39;;;;;;;15.73;12.00;;;8.80;99.90;;;;;;6172561;23;20017;-79
2021/05/01 09:39:07;;;;;;;19.27;13.20;;;8.60;99.90;;;;;;6168544;23;20013;-79
2021/05/01 09:41:51;;;;;;;14.43;12.88;;;8.50;99.90;;;;;;6116681;23;20014;-79
2021/05/01 09:44:18;;;;;;;16.10;13.57;;;8.50;99.90;;;;;;6123218;23;20018;-79
2021/05/01 09:46:45;;;;;;;14.75;11.77;;;8.60;99.90;;;;;;6148251;23;20060;-79
2021/05/01 09:49:18;;;;;;;24.98;17.33;;;8.60;99.90;;;;;;6123497;23;20024;-79
2021/05/01 09:51:48;;;;;;;;;;;8.70;99.90;;;;;;6149267;23;20005;-79
2021/05/01 09:54:16;;;;;;;17.90;13.00;;;8.80;99.90;;;;;;6149208;23;19917;-79
2021/05/01 09:56:44;;;;;;;11.32;9.48;;;8.80;99.90;;;;;;6150087;23;20021;-79
2021/05/01 09:59:10;;;;;;;13.40;10.95;;;8.70;99.90;;;;;;6099814;23;20021;-79
2021/05/01 10:01:37;;;;;;;14.02;12.32;;;8.60;99.90;;;;;;6122334;23;20542;-78
2021/05/01 10:04:14;;;;;;;21.10;14.07;;;8.60;99.90;;;;;;6147642;23;20080;-79
2021/05/01 10:06:48;;;;;;;14.75;12.18;;;8.60;99.90;;;;;;6149545;23;20104;-79
2021/05/01 10:09:22;;;;;;;16.38;12.70;;;8.50;99.90;;;;;;6124840;23;20014;-79
2021/05/01 10:11:50;;;;;;;17.65;13.18;;;8.50;99.90;;;;;;6148110;23;20041;-79
2021/05/01 10:14:17;;;;;;;15.55;11.20;;;8.40;99.90;;;;;;6172619;23;20020;-79
2021/05/01 10:16:54;;;;;;;15.07;11.60;;;8.40;99.90;;;;;;6173686;23;20016;-79
2021/05/01 10:19:20;;;;;;;16.38;12.82;;;8.40;99.90;;;;;;6123835;23;20534;-79
2021/05/01 10:21:47;;;;;;;12.32;9.95;;;8.30;99.90;;;;;;6147312;23;20020;-78
2021/05/01 10:24:13;;;;;;;13.75;10.25;;;8.30;99.90;;;;;;6124092;23;20415;-79
2021/05/01 10:26:49;;;;;;;12.23;8.77;;;8.30;99.90;;;;;;6123725;23;20013;-79
2021/05/01 10:29:34;;;;;;;11.00;7.32;;;8.40;99.90;;;;;;6123306;23;20013;-78
2021/05/01 10:32:00;;;;;;;11.40;8.10;;;8.40;99.90;;;;;;6173003;23;20100;-78
2021/05/01 10:34:27;;;;;;;10.10;8.90;;;8.50;99.90;;;;;;6102276;23;20402;-79
2021/05/01 10:36:58;;;;;;;10.82;9.10;;;8.60;99.90;;;;;;6100737;23;20529;-79
2021/05/01 10:39:24;;;;;;;9.18;7.57;;;8.60;99.90;;;;;;6175782;23;20072;-79
2021/05/01 10:41:59;;;;;;;13.13;10.30;;;8.60;99.90;;;;;;6148181;23;20009;-79
2021/05/01 10:44:25;;;;;;;11.98;8.38;;;8.60;99.90;;;;;;6151959;23;20088;-82
2021/05/01 10:47:08;;;;;;;11.63;8.85;;;8.70;99.90;;;;;;6151544;23;20039;-80
2021/05/01 10:49:34;;;;;;;7.60;6.80;;;8.80;99.90;;;;;;6125268;23;20064;-81
2021/05/01 10:52:13;;;;;;;9.60;7.38;;;8.90;99.90;;;;;;6144319;23;20033;-81
2021/05/01 10:55:05;;;;;;;10.40;8.75;;;9.10;99.90;;;;;;6124558;23;20013;-81
2021/05/01 10:57:32;;;;;;;11.95;9.35;;;9.20;99.90;;;;;;6125361;23;20013;-81
2021/05/01 11:00:08;;;;;;;16.00;9.82;;;9.30;99.90;;;;;;6125069;23;20017;-81
2021/05/01 11:02:39;;;;;;;10.02;7.75;;;9.30;99.90;;;;;;6151892;23;20113;-82
2021/05/01 11:05:10;;;;;;;12.57;10.25;;;9.50;99.90;;;;;;6150689;23;20017;-81
2021/05/01 11:08:04;;;;;;;11.25;9.32;;;9.50;99.90;;;;;;6173612;23;20457;-81
2021/05/01 11:10:34;;;;;;;8.55;7.65;;;9.50;99.90;;;;;;6109554;23;20060;-81
2021/05/01 11:13:04;;;;;;;11.60;8.48;;;9.50;99.90;;;;;;6171604;23;20013;-81
2021/05/01 11:15:42;;;;;;;9.57;8.45;;;9.40;99.90;;;;;;6124063;23;20104;-81
2021/05/01 11:18:09;;;;;;;11.50;8.70;;;9.50;99.90;;;;;;6123120;23;20036;-83
2021/05/01 11:20:36;;;;;;;8.75;7.85;;;9.50;99.90;;;;;;6150276;23;20529;-82
2021/05/01 11:23:02;;;;;;;7.88;7.03;;;9.50;99.90;;;;;;6123851;23;20117;-81
2021/05/01 11:25:30;;;;;;;8.50;7.60;;;9.40;99.90;;;;;;6124886;23;20101;-81
2021/05/01 11:27:57;;;;;;;8.00;7.05;;;9.20;99.90;;;;;;6148915;23;20024;-81
2021/05/01 11:30:28;;;;;;;10.25;8.30;;;9.10;99.90;;;;;;6122653;23;20513;-81
2021/05/01 11:32:55;;;;;;;14.63;11.38;;;8.90;99.90;;;;;;6149966;23;20454;-82
2021/05/01 11:35:26;;;;;;;9.98;8.80;;;8.80;99.90;;;;;;6139463;23;20229;-82
2021/05/01 11:41:33;;;;;;;10.88;8.23;;;8.80;99.90;;;;;;6126856;23;20056;-81
2021/05/01 11:43:59;;;;;;;9.30;7.32;;;8.80;99.90;;;;;;6094831;23;20013;-81
2021/05/01 11:46:33;;;;;;;10.20;7.18;;;8.80;99.90;;;;;;6145643;23;20018;-81
2021/05/01 11:49:06;;;;;;;8.93;8.02;;;8.70;99.90;;;;;;6124117;23;20038;-81
2021/05/01 11:51:48;;;;;;;9.60;8.70;;;8.90;99.90;;;;;;6122614;23;20017;-81
2021/05/01 11:54:49;;;;;;;10.50;8.73;;;9.00;99.90;;;;;;6124089;23;20041;-81
2021/05/01 11:57:25;;;;;;;10.20;8.23;;;9.00;99.90;;;;;;6117856;23;20454;-82
2021/05/01 11:59:53;;;;;;;11.10;9.32;;;8.80;99.90;;;;;;6148891;23;20040;-81
2021/05/01 12:02:33;;;;;;;14.30;7.72;;;8.70;99.90;;;;;;6121073;23;20036;-81
2021/05/01 12:05:05;;;;;;;7.53;6.75;;;8.50;99.90;;;;;;6172042;23;20455;-81
2021/05/01 12:07:38;;;;;;;8.75;7.18;;;8.40;99.90;;;;;;6149035;23;20010;-81
2021/05/01 12:10:09;;;;;;;9.20;7.38;;;8.20;99.90;;;;;;6122916;23;20009;-81
2021/05/01 12:12:39;;;;;;;11.93;7.90;;;8.10;99.90;;;;;;6121345;23;20092;-81
2021/05/01 12:15:08;;;;;;;7.97;7.15;;;8.10;99.90;;;;;;6122716;23;20013;-81
2021/05/01 12:17:35;;;;;;;8.68;6.65;;;8.20;99.90;;;;;;6123476;23;20013;-82
2021/05/01 12:20:12;;;;;;;9.38;7.53;;;8.20;99.90;;;;;;6173566;23;20976;-82
2021/05/01 12:22:38;;;;;;;9.73;8.55;;;8.30;99.90;;;;;;6121674;23;20048;-81
2021/05/01 12:25:30;;;;;;;7.40;6.13;;;8.40;99.90;;;;;;6098718;23;20013;-81
2021/05/01 12:27:57;;;;;;;;;;;8.50;99.90;;;;;;6121202;23;20025;-82
2021/05/01 12:33:31;;;;;;;6.15;5.00;;;8.40;99.90;;;;;;6146932;23;20037;-81
2021/05/01 12:36:03;;;;;;;8.18;5.18;;;8.30;99.90;;;;;;6173081;23;20025;-81
2021/05/01 12:38:35;;;;;;;6.68;5.40;;;8.40;99.90;;;;;;6124537;23;20347;-81
2021/05/01 12:41:07;;;;;;;10.98;7.78;;;8.50;99.90;;;;;;6123681;23;20009;-81
2021/05/01 12:43:33;;;;;;;7.40;6.43;;;8.50;99.90;;;;;;6172240;23;20013;-81
2021/05/01 12:46:30;;;;;;;9.27;6.50;;;8.60;99.90;;;;;;6173807;23;20020;-81
2021/05/01 12:48:58;;;;;;;7.00;6.30;;;8.60;99.90;;;;;;6173065;23;20359;-81
2021/05/01 12:51:29;;;;;;;9.20;6.10;;;8.80;99.90;;;;;;6123445;23;20014;-81